createdAt,value
2022-09-04T00:01:38.029Z,27.00
2022-09-04T00:05:02.102Z,27.17
2022-09-04T00:08:01.107Z,24.90
2022-09-04T00:10:31.598Z,25.83
2022-09-04T00:13:21.389Z,27.40
2022-09-04T00:16:08.471Z,26.55
2022-09-04T00:18:45.306Z,23.35
2022-09-04T00:21:21.704Z,27.63
2022-09-04T00:23:55.789Z,26.45
2022-09-04T00:26:46.440Z,27.08
2022-09-04T00:29:39.836Z,26.02
2022-09-04T00:32:29.849Z,26.40
2022-09-04T00:35:28.799Z,25.45
2022-09-04T00:38:27.906Z,26.30
2022-09-04T00:41:24.759Z,25.83
2022-09-04T00:44:08.734Z,25.60
2022-09-04T00:46:52.023Z,26.17
2022-09-04T00:49:25.058Z,25.63
2022-09-04T00:52:37.181Z,26.47
2022-09-04T00:58:21.605Z,25.52
2022-09-04T01:00:49.692Z,27.15
2022-09-04T01:03:46.794Z,28.20
2022-09-04T01:07:13.825Z,28.05
2022-09-04T01:10:24.924Z,26.98
2022-09-04T01:13:03.439Z,26.75
2022-09-04T01:15:44.664Z,26.15
2022-09-04T01:18:41.025Z,24.25
2022-09-04T01:21:55.818Z,23.48
2022-09-04T01:25:12.864Z,24.55
2022-09-04T01:28:21.007Z,26.00
2022-09-04T01:31:18.757Z,24.80
2022-09-04T01:34:00.577Z,23.88
2022-09-04T01:37:09.555Z,23.40
2022-09-04T01:39:39.976Z,23.80
2022-09-04T01:42:20.831Z,23.15
2022-09-04T01:44:48.576Z,24.38
2022-09-04T01:47:30.858Z,22.10
2022-09-04T01:50:25.837Z,22.05
2022-09-04T01:53:37.834Z,22.45
2022-09-04T01:56:35.044Z,19.90
2022-09-04T01:59:40.682Z,21.15
2022-09-04T02:03:09.839Z,17.35
2022-09-04T02:06:01.820Z,19.25
2022-09-04T02:08:35.618Z,16.77
2022-09-04T02:11:35.848Z,19.30
2022-09-04T02:14:27.627Z,17.50
2022-09-04T02:17:12.230Z,15.75
2022-09-04T02:20:20.907Z,19.25
2022-09-04T02:23:21.348Z,19.25
2022-09-04T02:25:58.117Z,20.27
2022-09-04T02:28:43.830Z,17.25
2022-09-04T02:31:19.712Z,16.65
2022-09-04T02:33:58.364Z,17.15
2022-09-04T02:36:54.606Z,17.77
2022-09-04T02:40:09.555Z,18.13
2022-09-04T02:43:05.814Z,18.05
2022-09-04T02:46:13.984Z,16.08
2022-09-04T02:49:05.856Z,13.90
2022-09-04T02:52:20.882Z,13.85
2022-09-04T02:55:24.876Z,14.88
2022-09-04T02:58:34.878Z,15.43
2022-09-04T03:01:53.960Z,15.65
2022-09-04T03:04:31.820Z,14.13
2022-09-04T03:07:26.071Z,15.00
2022-09-04T03:10:04.873Z,16.48
2022-09-04T03:12:42.368Z,17.38
2022-09-04T03:15:41.496Z,15.75
2022-09-04T03:18:21.156Z,16.30
2022-09-04T03:21:01.178Z,17.15
2022-09-04T03:23:46.834Z,16.55
2022-09-04T03:26:26.985Z,15.80
2022-09-04T03:29:03.204Z,15.63
2022-09-04T03:31:38.443Z,16.40
2022-09-04T03:34:23.215Z,17.55
2022-09-04T03:37:09.345Z,16.48
2022-09-04T03:39:55.569Z,18.75
2022-09-04T03:42:43.591Z,18.80
2022-09-04T03:45:50.938Z,18.25
2022-09-04T03:49:05.935Z,17.73
2022-09-04T03:52:11.990Z,18.75
2022-09-04T03:55:34.941Z,17.88
2022-09-04T03:58:53.937Z,21.08
2022-09-04T04:01:50.597Z,17.92
2022-09-04T04:04:56.310Z,21.08
2022-09-04T04:07:51.391Z,20.00
2022-09-04T04:10:42.943Z,19.33
2022-09-04T04:13:52.937Z,19.35
2022-09-04T04:16:31.448Z,21.35
2022-09-04T04:19:13.875Z,23.88
2022-09-04T04:21:56.030Z,23.77
2022-09-04T04:24:55.477Z,25.02
2022-09-04T04:28:05.341Z,27.08
2022-09-04T04:30:49.158Z,30.67
2022-09-04T04:34:26.930Z,29.20
2022-09-04T04:37:21.339Z,28.38
2022-09-04T04:39:54.393Z,26.38
2022-09-04T04:42:39.795Z,26.57
2022-09-04T04:45:48.565Z,26.90
2022-09-04T04:49:04.466Z,25.05
2022-09-04T04:52:04.036Z,25.42
2022-09-04T04:55:32.073Z,26.27
2022-09-04T04:58:24.460Z,24.75
2022-09-04T05:01:18.872Z,25.10
2022-09-04T05:04:21.276Z,28.83
2022-09-04T05:06:59.930Z,25.80
2022-09-04T05:10:08.435Z,27.38
2022-09-04T05:12:50.727Z,25.77
2022-09-04T05:15:29.103Z,23.38
2022-09-04T05:18:08.082Z,23.40
2022-09-04T05:21:07.939Z,24.77
2022-09-04T05:24:27.937Z,25.25
2022-09-04T05:27:31.358Z,25.98
2022-09-04T05:30:29.380Z,25.70
2022-09-04T05:33:08.545Z,26.40
2022-09-04T05:35:53.163Z,26.98
2022-09-04T05:38:30.774Z,28.20
2022-09-04T05:41:12.230Z,25.13
2022-09-04T05:44:03.547Z,27.38
2022-09-04T05:46:39.425Z,23.83
2022-09-04T05:49:44.965Z,24.95
2022-09-04T05:53:11.987Z,24.73
2022-09-04T05:56:05.611Z,23.67
2022-09-04T05:58:54.376Z,21.40
2022-09-04T06:01:27.185Z,20.38
2022-09-04T06:04:19.012Z,20.58
2022-09-04T06:07:09.527Z,20.33
2022-09-04T06:10:12.006Z,20.95
2022-09-04T06:13:49.996Z,24.67
2022-09-04T06:17:04.726Z,23.60
2022-09-04T06:19:50.501Z,26.77
2022-09-04T06:22:55.786Z,24.77
2022-09-04T06:25:42.267Z,23.23
2022-09-04T06:28:53.012Z,23.60
2022-09-04T06:32:26.647Z,23.00
2022-09-04T06:35:09.332Z,23.20
2022-09-04T06:38:04.035Z,22.83
2022-09-04T06:40:59.642Z,23.77
2022-09-04T06:43:41.837Z,24.40
2022-09-04T06:46:19.125Z,22.65
2022-09-04T06:49:01.525Z,21.73
2022-09-04T06:52:07.027Z,24.85
2022-09-04T06:55:03.116Z,23.25
2022-09-04T06:58:13.050Z,23.50
2022-09-04T07:01:09.010Z,25.02
2022-09-04T07:03:54.336Z,25.25
2022-09-04T07:06:35.755Z,25.38
2022-09-04T07:09:05.689Z,24.15
2022-09-04T07:12:15.020Z,25.30
2022-09-04T07:15:08.456Z,27.35
2022-09-04T07:18:17.502Z,27.02
2022-09-04T07:21:24.074Z,26.80
2022-09-04T07:24:40.192Z,27.02
2022-09-04T07:27:14.100Z,26.63
2022-09-04T07:30:20.077Z,30.52
2022-09-04T07:33:34.050Z,29.55
2022-09-04T07:36:22.424Z,29.27
2022-09-04T07:39:08.059Z,28.08
2022-09-04T07:41:53.781Z,31.42
2022-09-04T07:45:06.058Z,33.58
2022-09-04T07:47:57.675Z,33.42
2022-09-04T07:50:49.041Z,31.20
2022-09-04T07:53:52.492Z,33.45
2022-09-04T07:56:38.052Z,33.08
2022-09-04T07:59:28.115Z,31.95
2022-09-04T08:02:23.290Z,31.08
2022-09-04T08:05:16.446Z,30.23
2022-09-04T08:07:48.050Z,30.52
2022-09-04T08:10:17.912Z,34.15
2022-09-04T08:12:56.390Z,34.92
2022-09-04T08:15:43.498Z,38.97
2022-09-04T08:18:21.594Z,34.65
2022-09-04T08:21:10.476Z,35.03
2022-09-04T08:23:46.364Z,33.78
2022-09-04T08:26:46.763Z,32.17
2022-09-04T08:30:04.127Z,29.77
2022-09-04T08:33:17.079Z,29.15
2022-09-04T08:36:33.241Z,28.52
2022-09-04T08:39:42.959Z,29.75
2022-09-04T08:43:01.165Z,29.48
2022-09-04T08:45:58.376Z,28.27
2022-09-04T08:48:37.574Z,27.38
2022-09-04T08:51:37.116Z,27.77
2022-09-04T08:55:07.111Z,31.05
2022-09-04T08:57:56.959Z,28.15
2022-09-04T09:00:53.928Z,27.00
2022-09-04T09:03:43.751Z,27.67
2022-09-04T09:06:56.132Z,27.48
2022-09-04T09:09:26.077Z,26.50
2022-09-04T09:12:51.127Z,24.52
2022-09-04T09:15:46.869Z,31.25
2022-09-04T09:18:32.292Z,28.38
2022-09-04T09:21:23.124Z,30.35
2022-09-04T09:24:48.130Z,28.42
2022-09-04T09:28:04.122Z,26.58
2022-09-04T09:31:20.225Z,27.98
2022-09-04T09:35:06.145Z,24.95
2022-09-04T09:37:46.624Z,25.35
2022-09-04T09:40:33.274Z,25.10
2022-09-04T09:43:15.449Z,28.25
2022-09-04T09:46:10.266Z,22.90
2022-09-04T09:48:58.379Z,19.60
2022-09-04T09:52:04.172Z,23.30
2022-09-04T09:55:40.127Z,22.27
2022-09-04T09:59:03.149Z,21.40
2022-09-04T10:02:26.237Z,21.58
2022-09-04T10:05:44.865Z,20.60
2022-09-04T10:08:41.171Z,18.90
2022-09-04T10:11:46.498Z,16.83
2022-09-04T10:14:16.575Z,19.48
2022-09-04T10:17:17.686Z,17.60
2022-09-04T10:20:32.334Z,18.17
2022-09-04T10:26:18.177Z,21.40
2022-09-04T10:29:23.221Z,21.50
2022-09-04T10:32:15.865Z,27.52
2022-09-04T10:34:57.155Z,25.23
2022-09-04T10:37:41.265Z,23.30
2022-09-04T10:40:51.591Z,24.75
2022-09-04T10:43:53.696Z,24.50
2022-09-04T10:46:41.434Z,21.48
2022-09-04T10:49:45.216Z,23.27
2022-09-04T10:52:54.201Z,18.73
2022-09-04T10:56:16.261Z,18.13
2022-09-04T10:59:25.531Z,17.67
2022-09-04T11:02:41.114Z,19.52
2022-09-04T11:05:20.481Z,18.20
2022-09-04T11:08:23.036Z,16.67
2022-09-04T11:10:59.421Z,17.55
2022-09-04T11:13:49.299Z,15.20
2022-09-04T11:16:35.221Z,16.35
2022-09-04T11:19:10.964Z,15.50
2022-09-04T11:21:49.533Z,17.55
2022-09-04T11:24:54.214Z,19.33
2022-09-04T11:27:39.029Z,15.65
2022-09-04T11:30:35.234Z,17.15
2022-09-04T11:34:14.009Z,17.25
2022-09-04T11:39:52.340Z,18.58
2022-09-04T11:42:35.395Z,18.70
2022-09-04T11:45:50.320Z,16.25
2022-09-04T11:49:20.231Z,15.45
2022-09-04T11:52:38.251Z,17.30
2022-09-04T11:55:46.599Z,18.27
2022-09-04T11:58:30.611Z,17.95
2022-09-04T12:01:47.836Z,15.60
2022-09-04T12:04:25.828Z,16.98
2022-09-04T12:07:13.561Z,16.00
2022-09-04T12:10:18.400Z,16.80
2022-09-04T12:12:57.320Z,18.65
2022-09-04T12:15:55.329Z,16.38
2022-09-04T12:18:41.850Z,19.55
2022-09-04T12:21:37.889Z,20.45
2022-09-04T12:24:22.141Z,20.38
2022-09-04T12:27:19.701Z,22.55
2022-09-04T12:30:19.247Z,17.48
2022-09-04T12:33:38.250Z,20.38
2022-09-04T12:36:41.249Z,19.88
2022-09-04T12:39:36.398Z,16.75
2022-09-04T12:42:26.271Z,14.60
2022-09-04T12:45:15.180Z,14.85
2022-09-04T12:48:20.657Z,13.13
2022-09-04T12:51:23.261Z,15.60
2022-09-04T12:54:15.953Z,12.90
2022-09-04T12:57:10.085Z,11.32
2022-09-04T13:00:19.254Z,11.17
2022-09-04T13:03:20.968Z,8.88
2022-09-04T13:06:16.319Z,9.73
2022-09-04T13:09:12.574Z,9.45
2022-09-04T13:11:54.836Z,11.40
2022-09-04T13:14:21.741Z,11.38
2022-09-04T13:17:13.690Z,10.90
2022-09-04T13:20:17.312Z,9.93
2022-09-04T13:23:13.039Z,12.23
2022-09-04T13:25:59.579Z,10.90
2022-09-04T13:29:06.295Z,7.82
2022-09-04T13:32:39.343Z,8.30
2022-09-04T13:35:41.352Z,7.10
2022-09-04T13:38:37.297Z,6.70
2022-09-04T13:41:57.302Z,9.05
2022-09-04T13:44:41.012Z,6.13
2022-09-04T13:47:36.309Z,7.28
2022-09-04T13:50:55.283Z,6.38
2022-09-04T13:53:51.705Z,8.18
2022-09-04T13:56:28.442Z,10.60
2022-09-04T13:59:02.294Z,9.00
2022-09-04T14:01:33.004Z,8.38
2022-09-04T14:04:05.080Z,6.28
2022-09-04T14:06:35.190Z,7.68
2022-09-04T14:09:22.320Z,7.65
2022-09-04T14:12:32.471Z,7.22
2022-09-04T14:15:58.422Z,8.88
2022-09-04T14:18:51.026Z,7.72
2022-09-04T14:21:42.502Z,5.85
2022-09-04T14:24:49.310Z,6.30
2022-09-04T14:27:46.946Z,5.72
2022-09-04T14:30:19.305Z,5.22
2022-09-04T14:33:24.413Z,5.10
2022-09-04T14:36:50.397Z,5.05
2022-09-04T14:39:57.982Z,5.15
2022-09-04T14:42:44.087Z,5.38
2022-09-04T14:45:18.585Z,5.03
2022-09-04T14:47:55.015Z,4.75
2022-09-04T14:50:44.360Z,4.15
2022-09-04T14:53:28.834Z,5.10
2022-09-04T14:56:25.378Z,4.35
2022-09-04T14:59:36.973Z,4.07
2022-09-04T15:02:10.497Z,4.38
2022-09-04T15:07:39.476Z,4.53
2022-09-04T15:10:47.574Z,3.95
2022-09-04T15:13:31.326Z,3.85
2022-09-04T15:16:09.945Z,4.65
2022-09-04T15:18:40.783Z,3.65
2022-09-04T15:21:41.490Z,3.90
2022-09-04T15:24:28.363Z,3.67
2022-09-04T15:27:36.466Z,2.88
2022-09-04T15:30:24.460Z,3.67
2022-09-04T15:33:20.413Z,3.65
2022-09-04T15:36:10.268Z,3.22
2022-09-04T15:38:38.211Z,4.28
2022-09-04T15:41:37.139Z,4.72
2022-09-04T15:44:39.394Z,3.92
2022-09-04T15:47:49.365Z,4.90
2022-09-04T15:51:04.404Z,5.55
2022-09-04T15:54:23.369Z,3.65
2022-09-04T15:57:28.046Z,4.15
2022-09-04T16:00:09.170Z,3.50
2022-09-04T16:05:45.122Z,3.95
2022-09-04T16:08:20.447Z,4.57
2022-09-04T16:11:00.972Z,5.10
2022-09-04T16:14:17.382Z,4.38
2022-09-04T16:17:14.686Z,5.28
2022-09-04T16:20:11.727Z,4.35
2022-09-04T16:22:48.562Z,3.22
2022-09-04T16:26:00.422Z,4.78
2022-09-04T16:28:37.137Z,4.05
2022-09-04T16:31:27.474Z,2.35
2022-09-04T16:34:40.495Z,3.45
2022-09-04T16:37:34.754Z,2.83
2022-09-04T16:40:14.214Z,3.40
2022-09-04T16:43:36.445Z,3.38
2022-09-04T16:46:35.392Z,3.28
2022-09-04T16:49:19.727Z,2.88
2022-09-04T16:52:33.436Z,3.72
2022-09-04T16:55:44.736Z,3.10
2022-09-04T16:58:35.778Z,3.63
2022-09-04T17:01:09.101Z,4.15
2022-09-04T17:03:47.376Z,4.45
2022-09-04T17:06:34.399Z,5.82
2022-09-04T17:09:17.211Z,4.80
2022-09-04T17:11:55.677Z,4.57
2022-09-04T17:14:34.249Z,4.40
2022-09-04T17:17:31.649Z,4.32
2022-09-04T17:20:22.433Z,4.78
2022-09-04T17:28:55.910Z,4.38
2022-09-04T17:29:13.161Z,3.17
2022-09-04T17:30:46.511Z,3.35
2022-09-04T17:40:41.465Z,3.70
2022-09-04T17:40:49.541Z,3.88
2022-09-04T17:40:55.439Z,4.63
2022-09-04T17:43:43.167Z,4.47
2022-09-04T17:46:28.305Z,4.88
2022-09-04T17:48:56.132Z,4.45
2022-09-04T17:51:44.482Z,8.30
2022-09-04T17:54:30.926Z,7.00
2022-09-04T17:57:05.789Z,8.07
2022-09-04T17:59:42.484Z,4.25
2022-09-04T18:02:17.684Z,5.75
2022-09-04T18:04:57.414Z,8.00
2022-09-04T18:08:08.566Z,8.85
2022-09-04T18:12:02.496Z,9.18
2022-09-04T18:15:32.627Z,9.70
2022-09-04T18:17:56.439Z,10.38
2022-09-04T18:20:52.499Z,10.20
2022-09-04T18:24:00.231Z,11.48
2022-09-04T18:26:45.618Z,9.27
2022-09-04T18:30:31.903Z,11.35
2022-09-04T18:37:16.529Z,12.65
2022-09-04T18:37:26.563Z,11.15
2022-09-04T18:39:08.496Z,14.10
2022-09-04T18:46:33.272Z,15.57
2022-09-04T18:50:25.174Z,16.02
2022-09-04T18:50:41.122Z,13.40
2022-09-04T18:51:36.602Z,11.32
2022-09-04T18:54:54.517Z,12.82
2022-09-04T18:57:49.599Z,14.90
2022-09-04T19:00:35.044Z,17.13
2022-09-04T19:03:11.914Z,16.88
2022-09-04T19:05:44.345Z,12.75
2022-09-04T19:08:20.456Z,13.63
2022-09-04T19:11:01.359Z,12.52
2022-09-04T19:13:54.419Z,12.88
2022-09-04T19:17:05.703Z,27.27
2022-09-04T19:20:13.203Z,23.48
2022-09-04T19:23:04.521Z,35.70
2022-09-04T19:26:25.564Z,27.63
2022-09-04T19:29:36.611Z,22.02
2022-09-04T19:32:47.526Z,25.33
2022-09-04T19:36:00.540Z,21.40
2022-09-04T19:42:22.917Z,18.52
2022-09-04T19:46:26.414Z,15.05
2022-09-04T19:48:22.366Z,14.98
2022-09-04T19:53:20.411Z,18.15
2022-09-04T19:54:59.913Z,18.40
2022-09-04T19:57:59.236Z,16.05
2022-09-04T20:00:43.040Z,18.70
2022-09-04T20:03:56.573Z,18.42
2022-09-04T20:06:38.626Z,17.63
2022-09-04T20:09:33.156Z,18.48
2022-09-04T20:12:44.557Z,14.30
2022-09-04T20:15:59.579Z,17.33
2022-09-04T20:18:51.836Z,17.85
2022-09-04T20:21:58.587Z,17.67
2022-09-04T20:25:01.269Z,17.17
2022-09-04T20:28:08.980Z,16.90
2022-09-04T20:31:00.569Z,18.88
2022-09-04T20:34:10.579Z,20.52
2022-09-04T20:37:20.122Z,22.48
2022-09-04T20:40:25.013Z,23.77
2022-09-04T20:43:03.339Z,23.10
2022-09-04T20:48:43.354Z,22.50
2022-09-04T20:52:51.809Z,23.65
2022-09-04T20:53:00.393Z,22.83
2022-09-04T20:55:36.586Z,26.15
2022-09-04T21:03:11.196Z,26.83
2022-09-04T21:03:12.858Z,28.35
2022-09-04T21:05:12.054Z,25.25
2022-09-04T21:07:49.320Z,25.92
2022-09-04T21:10:31.078Z,26.52
2022-09-04T21:13:39.090Z,27.52
2022-09-04T21:16:18.116Z,26.27
2022-09-04T21:19:34.603Z,25.17
2022-09-04T21:22:41.432Z,23.75
2022-09-04T21:25:11.901Z,25.40
2022-09-04T21:28:02.098Z,26.00
2022-09-04T21:31:10.649Z,26.45
2022-09-04T21:34:28.591Z,24.23
2022-09-04T21:37:47.631Z,28.17
2022-09-04T21:40:50.354Z,24.10
2022-09-04T21:43:53.087Z,23.25
2022-09-04T21:46:57.955Z,23.25
2022-09-04T21:50:23.267Z,23.00
2022-09-04T21:53:41.640Z,24.23
2022-09-04T22:02:32.534Z,25.58
2022-09-04T22:02:48.554Z,26.27
2022-09-04T22:03:32.378Z,26.67
2022-09-04T22:09:09.870Z,24.45
2022-09-04T22:13:43.502Z,30.40
2022-09-04T22:13:50.372Z,30.85
2022-09-04T22:16:52.992Z,31.58
2022-09-04T22:19:41.447Z,29.98
2022-09-04T22:22:38.955Z,27.08
2022-09-04T22:25:32.381Z,27.85
2022-09-04T22:28:25.770Z,30.98
2022-09-04T22:31:35.664Z,28.00
2022-09-04T22:34:48.657Z,27.85
2022-09-04T22:37:56.252Z,26.98
2022-09-04T22:40:39.905Z,29.20
2022-09-04T22:43:25.867Z,29.92
2022-09-04T22:46:08.639Z,29.20
2022-09-04T22:49:08.167Z,30.45
2022-09-04T22:52:28.697Z,30.38
2022-09-04T22:55:40.214Z,31.45
2022-09-04T22:58:50.082Z,33.60
2022-09-04T23:01:47.719Z,29.45
2022-09-04T23:05:11.959Z,32.63
2022-09-04T23:12:30.262Z,29.38
2022-09-04T23:13:56.458Z,32.42
2022-09-04T23:16:54.010Z,36.97
2022-09-04T23:24:08.753Z,36.33
2022-09-04T23:26:33.594Z,39.58
2022-09-04T23:26:46.033Z,43.92
2022-09-04T23:29:07.657Z,40.78
2022-09-04T23:32:48.687Z,44.53
2022-09-04T23:36:11.299Z,44.17
2022-09-04T23:38:41.060Z,45.70
2022-09-04T23:41:18.757Z,45.70
2022-09-04T23:44:25.428Z,45.45
2022-09-04T23:47:55.752Z,45.97
2022-09-04T23:51:22.695Z,46.33
2022-09-04T23:54:24.807Z,45.22
2022-09-04T23:57:08.097Z,44.38
2022-09-04T23:59:55.424Z,45.53
